Time;durP1;ratioP1;P1;durP2;ratioP2;P2;SDS_P1;SDS_P2;PMS_P1;PMS_P2;Temp;Humidity;BMP_temperature;BMP_pressure;BME280_temperature;BME280_humidity;BME280_pressure;Samples;Min_cycle;Max_cycle;Signal;HPM_P1;HPM_P2
2022/01/15 00:00:24;;;;;;;0.60;0.60;;;4.20;99.90;;;;;;4997695;28;20446;-73
2022/01/15 00:02:49;;;;;;;5.80;2.10;;;4.20;99.90;;;;;;4997500;28;20518;-73
2022/01/15 00:05:15;;;;;;;0.60;0.60;;;4.20;99.90;;;;;;4986571;28;20514;-73
2022/01/15 00:07:42;;;;;;;1.23;1.17;;;4.10;99.90;;;;;;4995952;28;20440;-73
2022/01/15 00:10:08;;;;;;;6.00;3.43;;;4.10;99.90;;;;;;4995606;28;20713;-73
2022/01/15 00:12:40;;;;;;;0.60;0.60;;;4.10;99.90;;;;;;4995859;28;20478;-74
2022/01/15 00:15:11;;;;;;;0.80;0.80;;;4.10;99.90;;;;;;4994974;28;20416;-73
2022/01/15 00:17:49;;;;;;;0.77;0.77;;;4.00;99.90;;;;;;4995713;28;20499;-72
2022/01/15 00:20:16;;;;;;;0.70;0.60;;;3.90;99.90;;;;;;4995300;28;20885;-73
2022/01/15 00:22:43;;;;;;;2.50;2.00;;;3.90;99.90;;;;;;4978304;28;20459;-73
2022/01/15 00:25:09;;;;;;;0.80;0.80;;;3.80;99.90;;;;;;4995784;28;20428;-72
2022/01/15 00:27:34;;;;;;;7.87;3.30;;;3.80;99.90;;;;;;4995360;28;20999;-72
2022/01/15 00:30:03;;;;;;;1.63;1.53;;;3.80;99.90;;;;;;4985688;28;20475;-72
2022/01/15 00:32:28;;;;;;;2.40;2.23;;;3.80;99.90;;;;;;4995433;28;20520;-73
2022/01/15 00:34:54;;;;;;;0.97;0.97;;;3.90;99.90;;;;;;4995380;28;20489;-74
2022/01/15 00:37:19;;;;;;;0.83;0.83;;;3.90;99.90;;;;;;4997420;28;20197;-73
2022/01/15 00:39:45;;;;;;;0.60;0.60;;;3.90;99.90;;;;;;4997143;28;20251;-73
2022/01/15 00:42:10;;;;;;;8.10;3.47;;;3.90;99.90;;;;;;4995985;28;20256;-73
2022/01/15 00:44:38;;;;;;;0.60;0.60;;;3.90;99.90;;;;;;4991093;28;20168;-73
2022/01/15 00:47:04;;;;;;;0.73;0.73;;;3.90;99.90;;;;;;4997359;28;20201;-73
2022/01/15 00:49:30;;;;;;;1.87;1.77;;;3.90;99.90;;;;;;4998088;28;20438;-73
2022/01/15 00:51:55;;;;;;;1.57;1.47;;;3.90;99.90;;;;;;4996828;28;20200;-73
2022/01/15 00:54:21;;;;;;;3.00;2.80;;;3.90;99.90;;;;;;4994410;28;20196;-73
2022/01/15 00:56:46;;;;;;;1.60;1.20;;;3.90;99.90;;;;;;4996291;28;20225;-73
2022/01/15 00:59:12;;;;;;;0.97;0.97;;;4.00;99.90;;;;;;4995346;28;20215;-73
2022/01/15 01:01:38;;;;;;;1.50;1.40;;;4.00;99.90;;;;;;4994481;28;20248;-72
2022/01/15 01:04:03;;;;;;;1.27;1.20;;;4.00;99.90;;;;;;4994626;28;20521;-72
2022/01/15 01:06:29;;;;;;;0.83;0.83;;;4.00;99.90;;;;;;4995056;28;20203;-72
2022/01/15 01:08:54;;;;;;;1.00;1.00;;;3.90;99.90;;;;;;4994446;28;20180;-72
2022/01/15 01:11:30;;;;;;;0.80;0.80;;;3.90;99.90;;;;;;4993612;28;20180;-72
2022/01/15 01:24:43;;;;;;;0.60;0.50;;;3.70;99.90;;;;;;4987477;28;20514;-73
2022/01/15 01:27:16;;;;;;;4.93;1.50;;;3.80;99.90;;;;;;4996567;28;20475;-73
2022/01/15 01:29:55;;;;;;;0.60;0.60;;;3.70;99.90;;;;;;4964760;28;20173;-73
2022/01/15 01:32:39;;;;;;;1.83;1.73;;;3.60;99.90;;;;;;4994264;28;20435;-73
2022/01/15 01:35:12;;;;;;;0.80;0.70;;;3.50;99.90;;;;;;4994110;28;20450;-73
2022/01/15 01:37:43;;;;;;;1.53;1.37;;;3.50;99.90;;;;;;4994334;28;20800;-73
2022/01/15 01:42:54;;;;;;;3.40;1.27;;;3.40;99.90;;;;;;4994330;28;20423;-74
2022/01/15 01:45:20;;;;;;;0.70;0.70;;;3.30;99.90;;;;;;4994822;28;20418;-73
2022/01/15 01:47:45;;;;;;;0.80;0.70;;;3.30;99.90;;;;;;4993418;28;21255;-73
2022/01/15 01:50:19;;;;;;;0.60;0.60;;;3.20;99.90;;;;;;4993931;28;20573;-73
2022/01/15 01:52:48;;;;;;;0.93;0.83;;;3.30;99.90;;;;;;4995239;28;20227;-72
2022/01/15 01:55:14;;;;;;;0.80;0.77;;;3.30;99.90;;;;;;4977417;28;21004;-73
2022/01/15 01:57:41;;;;;;;0.60;0.57;;;3.30;99.90;;;;;;4994929;28;20541;-73
2022/01/15 02:00:09;;;;;;;0.60;0.50;;;3.30;99.90;;;;;;4976909;28;20451;-72
2022/01/15 02:02:35;;;;;;;0.60;0.50;;;3.20;99.90;;;;;;4983563;28;20461;-72
2022/01/15 02:05:02;;;;;;;0.60;0.60;;;3.20;99.90;;;;;;4994373;28;20420;-73
2022/01/15 02:07:28;;;;;;;1.43;1.33;;;3.10;99.90;;;;;;4994612;28;20192;-72
2022/01/15 02:09:55;;;;;;;1.60;1.50;;;3.10;99.90;;;;;;4993903;28;20424;-72
2022/01/15 02:12:21;;;;;;;0.60;0.60;;;3.20;99.90;;;;;;4993288;28;20438;-72
2022/01/15 02:14:47;;;;;;;1.63;1.53;;;3.20;99.90;;;;;;4993250;28;20420;-72
2022/01/15 02:17:17;;;;;;;0.80;0.80;;;3.30;99.90;;;;;;4993536;28;20983;-72
2022/01/15 02:20:08;;;;;;;0.60;0.60;;;3.20;99.90;;;;;;4987102;28;20478;-72
2022/01/15 02:25:16;;;;;;;0.60;0.60;;;3.30;99.90;;;;;;4993250;28;20431;-72
2022/01/15 02:27:42;;;;;;;2.50;1.23;;;3.30;99.90;;;;;;4993163;28;20800;-71
2022/01/15 02:30:08;;;;;;;0.60;0.57;;;3.30;99.90;;;;;;4985148;28;20173;-71
2022/01/15 02:32:34;;;;;;;0.60;0.60;;;3.30;99.90;;;;;;4993109;28;20187;-72
2022/01/15 02:35:02;;;;;;;0.60;0.60;;;3.30;99.90;;;;;;4992881;28;20424;-72
2022/01/15 02:37:29;;;;;;;0.70;0.70;;;3.30;99.90;;;;;;4992720;28;20439;-72
2022/01/15 02:39:55;;;;;;;2.50;2.30;;;3.10;99.90;;;;;;4976927;28;20502;-72
2022/01/15 02:42:22;;;;;;;0.60;0.60;;;3.30;99.90;;;;;;4992990;28;20428;-73
2022/01/15 02:44:48;;;;;;;1.57;1.13;;;3.10;99.90;;;;;;4994146;28;20416;-72
2022/01/15 02:49:57;;;;;;;0.80;0.80;;;3.00;99.90;;;;;;4994239;28;20184;-72
2022/01/15 02:52:23;;;;;;;1.23;1.13;;;3.00;99.90;;;;;;4993690;28;20797;-73
2022/01/15 02:54:49;;;;;;;0.60;0.60;;;2.90;99.90;;;;;;4993784;28;20212;-73
2022/01/15 02:57:14;;;;;;;1.63;1.53;;;2.80;99.90;;;;;;4993513;28;20205;-73
2022/01/15 02:59:40;;;;;;;3.03;2.83;;;2.80;99.90;;;;;;4992947;28;20208;-73
2022/01/15 03:02:06;;;;;;;0.60;0.60;;;2.80;99.90;;;;;;4993355;28;20199;-73
2022/01/15 03:04:32;;;;;;;1.23;1.13;;;2.70;99.90;;;;;;4993574;28;20792;-72
2022/01/15 03:06:57;;;;;;;1.47;1.37;;;2.70;99.90;;;;;;4992108;28;20292;-73
2022/01/15 03:09:23;;;;;;;2.03;1.13;;;2.80;99.90;;;;;;4992771;28;20191;-73
2022/01/15 03:11:48;;;;;;;2.13;1.37;;;2.70;99.90;;;;;;4992457;28;20192;-72
2022/01/15 03:14:18;;;;;;;0.93;0.93;;;2.70;99.90;;;;;;4992354;28;20185;-72
2022/01/15 03:16:44;;;;;;;0.60;0.50;;;2.70;99.90;;;;;;4991334;28;20266;-72
2022/01/15 03:19:09;;;;;;;0.60;0.60;;;2.80;99.90;;;;;;4992444;28;20492;-73
2022/01/15 03:21:35;;;;;;;0.60;0.50;;;2.70;99.90;;;;;;4992385;28;20585;-73
2022/01/15 03:24:00;;;;;;;0.97;0.97;;;2.80;99.90;;;;;;4992407;28;20184;-72
2022/01/15 03:26:26;;;;;;;0.70;0.70;;;2.90;99.90;;;;;;4992394;28;20569;-72
2022/01/15 03:28:51;;;;;;;1.57;0.80;;;2.90;99.90;;;;;;4991344;28;20184;-73
2022/01/15 03:31:17;;;;;;;0.60;0.50;;;2.90;99.90;;;;;;4992053;28;20188;-72
2022/01/15 03:33:42;;;;;;;0.67;0.67;;;2.80;99.90;;;;;;4991126;28;20188;-73
2022/01/15 03:36:08;;;;;;;0.70;0.70;;;2.70;99.90;;;;;;4992087;28;20189;-72
2022/01/15 03:38:35;;;;;;;0.60;0.57;;;2.70;99.90;;;;;;4992201;28;20570;-72
2022/01/15 03:41:00;;;;;;;0.60;0.57;;;2.60;99.90;;;;;;4991863;28;20921;-73
2022/01/15 03:43:26;;;;;;;0.60;0.50;;;2.60;99.90;;;;;;4992150;28;20420;-73
2022/01/15 03:45:51;;;;;;;0.60;0.50;;;2.70;99.90;;;;;;4974792;28;20207;-73
2022/01/15 03:48:17;;;;;;;0.80;0.80;;;2.70;99.90;;;;;;4974912;28;20188;-72
2022/01/15 03:50:43;;;;;;;0.60;0.60;;;2.50;99.90;;;;;;4988752;28;20594;-72
2022/01/15 03:53:08;;;;;;;1.07;0.97;;;2.60;99.90;;;;;;4991981;28;20261;-71
2022/01/15 03:55:34;;;;;;;3.17;0.93;;;2.50;99.90;;;;;;4992212;28;20691;-72
2022/01/15 03:58:00;;;;;;;1.10;1.00;;;2.50;99.90;;;;;;4991952;28;20208;-72
2022/01/15 04:00:27;;;;;;;0.60;0.60;;;2.40;99.90;;;;;;4991929;28;20223;-72
2022/01/15 04:02:54;;;;;;;0.60;0.50;;;2.30;99.90;;;;;;4992043;28;20440;-72
2022/01/15 04:05:20;;;;;;;0.70;0.70;;;2.30;99.90;;;;;;4991253;28;20506;-73
2022/01/15 04:07:46;;;;;;;1.07;1.03;;;2.20;99.90;;;;;;4992780;28;20420;-73
2022/01/15 04:10:13;;;;;;;0.60;0.50;;;2.10;99.90;;;;;;4992913;28;20434;-73
2022/01/15 04:12:39;;;;;;;0.97;0.97;;;2.10;99.90;;;;;;4992564;28;20177;-73
2022/01/15 04:15:07;;;;;;;0.60;0.60;;;2.10;99.90;;;;;;4992167;28;20429;-72
2022/01/15 04:17:32;;;;;;;0.60;0.50;;;1.80;99.90;;;;;;4991709;28;20440;-71
2022/01/15 04:19:58;;;;;;;0.60;0.60;;;1.80;99.90;;;;;;4974396;28;20501;-72
2022/01/15 04:22:24;;;;;;;0.60;0.60;;;1.90;99.90;;;;;;4990171;28;20638;-72
2022/01/15 04:24:50;;;;;;;0.60;0.50;;;1.80;99.90;;;;;;4991807;28;20452;-71
2022/01/15 04:27:15;;;;;;;1.33;1.03;;;1.90;99.90;;;;;;4990553;28;20200;-72
2022/01/15 04:29:41;;;;;;;1.70;1.13;;;2.00;99.90;;;;;;4991943;28;20179;-71
2022/01/15 04:32:07;;;;;;;1.23;1.23;;;1.80;99.90;;;;;;4991262;28;20246;-71
2022/01/15 04:34:33;;;;;;;0.60;0.57;;;1.90;99.90;;;;;;4991521;28;20169;-72
2022/01/15 04:37:17;;;;;;;0.60;0.50;;;1.70;99.90;;;;;;4991138;28;20470;-73
2022/01/15 04:39:43;;;;;;;1.17;1.07;;;1.80;99.90;;;;;;4990446;28;20291;-73
2022/01/15 04:42:09;;;;;;;1.07;1.07;;;1.70;99.90;;;;;;4986948;28;20543;-73
2022/01/15 04:44:35;;;;;;;0.70;0.70;;;1.70;99.90;;;;;;4988232;28;20178;-73
2022/01/15 04:47:03;;;;;;;0.60;0.50;;;1.80;99.90;;;;;;4994901;28;20461;-74
2022/01/15 04:49:29;;;;;;;0.60;0.60;;;1.80;99.90;;;;;;4995339;28;20169;-74
2022/01/15 04:51:54;;;;;;;1.43;1.33;;;1.80;99.90;;;;;;4994142;28;20423;-73
2022/01/15 04:54:20;;;;;;;0.63;0.63;;;1.70;99.90;;;;;;4993961;28;20428;-73
2022/01/15 04:56:45;;;;;;;1.10;1.00;;;1.70;99.90;;;;;;4994933;28;20666;-73
2022/01/15 04:59:11;;;;;;;0.87;0.87;;;1.60;99.90;;;;;;4994889;28;20212;-73
2022/01/15 05:01:37;;;;;;;0.60;0.50;;;1.60;99.90;;;;;;4994530;28;20165;-73
2022/01/15 05:04:03;;;;;;;0.60;0.50;;;1.60;99.90;;;;;;4994125;28;20167;-73
2022/01/15 05:06:28;;;;;;;2.30;2.20;;;1.60;99.90;;;;;;4995291;28;20447;-72
2022/01/15 05:09:03;;;;;;;0.60;0.50;;;1.60;99.90;;;;;;4994819;28;20427;-72
2022/01/15 05:11:33;;;;;;;0.60;0.53;;;1.50;99.90;;;;;;4994540;28;20176;-73
2022/01/15 05:13:58;;;;;;;1.80;1.70;;;1.60;99.90;;;;;;4994183;28;20415;-73
2022/01/15 05:16:24;;;;;;;0.60;0.53;;;1.60;99.90;;;;;;4993924;28;20462;-73
2022/01/15 05:18:49;;;;;;;0.70;0.70;;;1.60;99.90;;;;;;4994976;28;20231;-73
2022/01/15 05:21:15;;;;;;;0.60;0.60;;;1.60;99.90;;;;;;4994848;28;20536;-72
2022/01/15 05:23:40;;;;;;;0.60;0.50;;;1.60;99.90;;;;;;4995325;28;20172;-72
2022/01/15 05:26:09;;;;;;;12.27;1.33;;;1.60;99.90;;;;;;4995066;28;20255;-73
2022/01/15 05:28:35;;;;;;;0.60;0.57;;;1.70;99.90;;;;;;4994724;28;20577;-73
2022/01/15 05:31:00;;;;;;;0.60;0.60;;;1.60;99.90;;;;;;4990503;28;20416;-73
2022/01/15 05:33:26;;;;;;;0.83;0.77;;;1.50;99.90;;;;;;4988177;28;20177;-73
2022/01/15 05:35:51;;;;;;;0.80;0.80;;;1.60;99.90;;;;;;4994814;28;20685;-73
2022/01/15 05:38:17;;;;;;;1.43;0.70;;;1.70;99.90;;;;;;4994636;28;20678;-72
2022/01/15 05:40:42;;;;;;;8.23;1.60;;;1.50;99.90;;;;;;4994145;28;20175;-72
2022/01/15 05:43:08;;;;;;;1.50;0.77;;;1.40;99.90;;;;;;4993754;28;20187;-72
2022/01/15 05:45:33;;;;;;;0.63;0.63;;;1.40;99.90;;;;;;4993790;28;20545;-71
2022/01/15 05:47:59;;;;;;;1.50;1.50;;;1.40;99.90;;;;;;4993266;28;20554;-72
2022/01/15 05:50:24;;;;;;;2.90;2.70;;;1.40;99.90;;;;;;4994105;28;20177;-72
2022/01/15 05:52:50;;;;;;;0.60;0.50;;;1.40;99.90;;;;;;4994128;28;20176;-72
2022/01/15 05:55:15;;;;;;;1.37;1.37;;;1.40;99.90;;;;;;4993809;28;20177;-72
2022/01/15 05:57:41;;;;;;;0.93;0.93;;;1.50;99.90;;;;;;4992644;28;20263;-72
2022/01/15 06:00:08;;;;;;;0.80;0.80;;;1.40;99.90;;;;;;4992767;28;20268;-72
2022/01/15 06:02:33;;;;;;;0.60;0.50;;;1.50;99.90;;;;;;4993633;28;20248;-72
2022/01/15 06:04:59;;;;;;;0.60;0.60;;;1.50;99.90;;;;;;4993697;28;20519;-74
2022/01/15 06:07:25;;;;;;;0.90;0.90;;;1.50;99.90;;;;;;4993660;28;20189;-74
2022/01/15 06:09:50;;;;;;;0.73;0.73;;;1.50;99.90;;;;;;4994302;28;20199;-73
2022/01/15 06:12:16;;;;;;;2.97;2.77;;;1.50;99.90;;;;;;4993006;28;20263;-73
2022/01/15 06:14:41;;;;;;;1.43;1.33;;;1.50;99.90;;;;;;4989113;28;20231;-73
2022/01/15 06:17:08;;;;;;;0.80;0.80;;;1.50;99.90;;;;;;4994242;28;20207;-73
2022/01/15 06:19:36;;;;;;;1.53;1.43;;;1.50;99.90;;;;;;4994531;28;20200;-73
2022/01/15 06:22:02;;;;;;;0.60;0.60;;;1.50;99.90;;;;;;4976590;28;20427;-72
2022/01/15 06:24:27;;;;;;;0.63;0.63;;;1.50;99.90;;;;;;4993326;28;20432;-73
2022/01/15 06:26:53;;;;;;;0.70;0.70;;;1.60;99.90;;;;;;4992431;28;20851;-72
2022/01/15 06:29:20;;;;;;;1.17;1.07;;;1.60;99.90;;;;;;4993198;28;20172;-72
2022/01/15 06:31:46;;;;;;;1.47;1.37;;;1.60;99.90;;;;;;4992899;28;20207;-73
2022/01/15 06:34:11;;;;;;;2.13;1.93;;;1.70;99.90;;;;;;4992918;28;20467;-73
2022/01/15 06:36:37;;;;;;;0.60;0.50;;;1.60;99.90;;;;;;4992897;28;20220;-72
2022/01/15 06:39:02;;;;;;;7.83;1.70;;;1.70;99.90;;;;;;4993313;28;20677;-72
2022/01/15 06:41:28;;;;;;;0.63;0.63;;;1.60;99.90;;;;;;4992174;28;20190;-73
2022/01/15 06:43:53;;;;;;;0.60;0.60;;;1.60;99.90;;;;;;4992576;28;20288;-72
2022/01/15 06:46:19;;;;;;;0.60;0.50;;;1.70;99.90;;;;;;4992792;28;20348;-72
2022/01/15 06:48:44;;;;;;;1.73;1.63;;;1.70;99.90;;;;;;4993021;28;20198;-72
2022/01/15 06:51:10;;;;;;;0.60;0.53;;;1.70;99.90;;;;;;4985555;28;20540;-72
2022/01/15 06:53:35;;;;;;;0.60;0.60;;;1.70;99.90;;;;;;4993073;28;20184;-72
2022/01/15 06:56:01;;;;;;;0.60;0.50;;;1.70;99.90;;;;;;4992812;28;20702;-72
2022/01/15 06:58:27;;;;;;;1.27;1.17;;;1.70;99.90;;;;;;4992718;28;20215;-72
2022/01/15 07:00:52;;;;;;;0.60;0.50;;;1.60;99.90;;;;;;4992572;28;20177;-72
2022/01/15 07:03:18;;;;;;;0.90;0.80;;;1.60;99.90;;;;;;4992601;28;20181;-72
2022/01/15 07:05:43;;;;;;;0.60;0.53;;;1.70;99.90;;;;;;4992005;28;20224;-72
2022/01/15 07:08:09;;;;;;;2.20;1.23;;;1.70;99.90;;;;;;4990849;28;20176;-73
2022/01/15 07:10:39;;;;;;;0.60;0.50;;;1.70;99.90;;;;;;4992480;28;20339;-72
2022/01/15 07:13:05;;;;;;;0.60;0.50;;;1.70;99.90;;;;;;4991619;28;20219;-71
2022/01/15 07:15:32;;;;;;;0.60;0.60;;;1.60;99.90;;;;;;4992292;28;20542;-72
2022/01/15 07:17:59;;;;;;;0.60;0.50;;;1.60;99.90;;;;;;4992055;28;20438;-72
2022/01/15 07:20:25;;;;;;;0.60;0.60;;;1.70;99.90;;;;;;4992252;28;20424;-72
2022/01/15 07:22:51;;;;;;;0.60;0.50;;;1.60;99.90;;;;;;4992180;28;20485;-72
2022/01/15 07:25:16;;;;;;;2.00;1.37;;;1.60;99.90;;;;;;4992411;28;20933;-72
2022/01/15 07:27:43;;;;;;;0.60;0.50;;;1.70;99.90;;;;;;4992307;28;20262;-72
2022/01/15 07:30:11;;;;;;;0.60;0.57;;;1.60;99.90;;;;;;4992045;28;20551;-76
2022/01/15 07:32:37;;;;;;;0.80;0.80;;;1.70;99.90;;;;;;4991653;28;20430;-73
2022/01/15 07:35:03;;;;;;;1.67;1.00;;;1.60;99.90;;;;;;4991973;28;20459;-73
2022/01/15 07:37:30;;;;;;;0.70;0.70;;;1.60;99.90;;;;;;4992196;28;20489;-73
2022/01/15 07:39:55;;;;;;;0.60;0.53;;;1.60;99.90;;;;;;4992365;28;20459;-73
2022/01/15 07:42:21;;;;;;;0.60;0.50;;;1.70;99.90;;;;;;4991838;28;20522;-73
2022/01/15 07:44:47;;;;;;;2.30;2.20;;;1.60;99.90;;;;;;4992087;28;20181;-73
2022/01/15 07:47:12;;;;;;;2.20;1.47;;;1.60;99.90;;;;;;4987589;28;20212;-73
2022/01/15 07:49:39;;;;;;;0.60;0.50;;;1.70;99.90;;;;;;4978056;28;20177;-73
2022/01/15 07:52:04;;;;;;;0.60;0.50;;;1.70;99.90;;;;;;4989305;28;20196;-73
2022/01/15 07:54:30;;;;;;;1.37;1.27;;;1.70;99.90;;;;;;4992144;28;20436;-73
2022/01/15 07:56:55;;;;;;;1.10;0.90;;;1.70;99.90;;;;;;4992214;28;20205;-73
2022/01/15 07:59:22;;;;;;;0.60;0.60;;;1.70;99.90;;;;;;4992094;28;20284;-73
2022/01/15 08:01:47;;;;;;;0.87;0.87;;;1.80;99.90;;;;;;4982015;28;20402;-73
2022/01/15 08:04:13;;;;;;;1.43;1.33;;;1.70;99.90;;;;;;4990861;28;20439;-71
2022/01/15 08:06:40;;;;;;;0.60;0.50;;;1.80;99.90;;;;;;4992045;28;20716;-72
2022/01/15 08:09:06;;;;;;;0.60;0.50;;;1.90;99.90;;;;;;4992674;28;20187;-73
2022/01/15 08:11:31;;;;;;;0.60;0.53;;;1.80;99.90;;;;;;4978701;28;20443;-73
2022/01/15 08:13:57;;;;;;;0.80;0.80;;;1.80;99.90;;;;;;4975649;28;20184;-72
2022/01/15 08:16:22;;;;;;;0.60;0.50;;;1.80;99.90;;;;;;4993132;28;20210;-73
2022/01/15 08:18:48;;;;;;;0.60;0.53;;;1.80;99.90;;;;;;4993087;28;20256;-73
2022/01/15 08:21:13;;;;;;;1.23;1.13;;;1.80;99.90;;;;;;4995842;28;20192;-72
2022/01/15 08:23:39;;;;;;;0.60;0.53;;;1.90;99.90;;;;;;4994756;28;20165;-72
2022/01/15 08:26:04;;;;;;;0.60;0.50;;;1.80;99.90;;;;;;4995734;28;20196;-73
2022/01/15 08:28:30;;;;;;;0.57;0.50;;;1.80;99.90;;;;;;4995598;28;20674;-73
2022/01/15 08:30:56;;;;;;;0.87;0.87;;;1.90;99.90;;;;;;4995524;28;20259;-73
2022/01/15 08:33:21;;;;;;;0.70;0.70;;;2.00;99.90;;;;;;4995443;28;20181;-73
2022/01/15 08:35:47;;;;;;;0.60;0.50;;;1.90;99.90;;;;;;4995055;28;20227;-73
2022/01/15 08:38:12;;;;;;;1.00;0.70;;;1.90;99.90;;;;;;4995196;28;20205;-72
2022/01/15 08:40:39;;;;;;;0.90;0.90;;;2.00;99.90;;;;;;4995421;28;20191;-73
2022/01/15 08:43:05;;;;;;;1.43;1.33;;;1.90;99.90;;;;;;4977639;28;20196;-72
2022/01/15 08:45:30;;;;;;;0.60;0.50;;;2.00;99.90;;;;;;4995258;28;20804;-72
2022/01/15 08:47:57;;;;;;;0.60;0.53;;;2.00;99.90;;;;;;4995235;28;20560;-72
2022/01/15 08:50:23;;;;;;;0.60;0.60;;;2.10;99.90;;;;;;4995044;28;20444;-72
2022/01/15 08:52:49;;;;;;;0.90;0.90;;;2.00;99.90;;;;;;4991618;28;20466;-71
2022/01/15 08:55:15;;;;;;;0.60;0.50;;;2.00;99.90;;;;;;4986333;28;21057;-72
2022/01/15 08:57:42;;;;;;;0.60;0.50;;;2.10;99.90;;;;;;4995264;28;20191;-72
2022/01/15 09:00:11;;;;;;;1.00;1.00;;;2.10;99.90;;;;;;4977528;28;20498;-72
2022/01/15 09:02:37;;;;;;;0.60;0.50;;;2.10;99.90;;;;;;4994966;28;20424;-72
2022/01/15 09:05:03;;;;;;;0.60;0.60;;;2.20;99.90;;;;;;4995072;28;20939;-73
2022/01/15 09:07:29;;;;;;;0.60;0.60;;;2.20;99.90;;;;;;4993927;28;20940;-73
2022/01/15 09:09:54;;;;;;;0.97;0.93;;;2.10;99.90;;;;;;4995017;28;20438;-73
2022/01/15 09:12:22;;;;;;;0.97;0.97;;;2.10;99.90;;;;;;4994671;28;20180;-73
2022/01/15 09:14:49;;;;;;;2.03;1.90;;;2.10;99.90;;;;;;4992560;28;20177;-74
2022/01/15 09:17:15;;;;;;;1.37;0.87;;;2.00;99.90;;;;;;5007519;28;20451;-74
2022/01/15 09:19:40;;;;;;;1.33;1.23;;;2.00;99.90;;;;;;5014456;28;20599;-73
2022/01/15 09:22:10;;;;;;;2.20;2.10;;;2.00;99.90;;;;;;4994245;28;20176;-73
2022/01/15 09:24:35;;;;;;;2.53;1.10;;;2.00;99.90;;;;;;4993564;28;20169;-73
2022/01/15 09:30:11;;;;;;;1.07;0.90;;;2.10;99.90;;;;;;4988309;28;20979;-74
2022/01/15 09:32:30;;;;;;;0.83;0.83;;;2.10;99.90;;;;;;4992634;28;20435;-73
2022/01/15 09:34:56;;;;;;;9.03;2.20;;;2.20;99.90;;;;;;4993967;28;20432;-73
2022/01/15 09:37:21;;;;;;;1.73;1.63;;;2.10;99.90;;;;;;4994269;28;20204;-73
2022/01/15 09:39:47;;;;;;;1.67;1.57;;;2.20;99.90;;;;;;4994217;28;20208;-73
2022/01/15 09:42:13;;;;;;;0.60;0.60;;;2.20;99.90;;;;;;4989247;28;20176;-73
2022/01/15 09:44:39;;;;;;;0.93;0.90;;;2.10;99.90;;;;;;4991846;28;20199;-73
2022/01/15 09:47:09;;;;;;;2.97;2.77;;;2.20;99.90;;;;;;4993811;28;20455;-73
2022/01/15 09:49:35;;;;;;;0.60;0.50;;;2.30;99.90;;;;;;4994181;28;20754;-73
2022/01/15 09:52:02;;;;;;;2.40;1.80;;;2.20;99.90;;;;;;4994222;28;20849;-74
2022/01/15 09:54:28;;;;;;;0.93;0.93;;;2.30;99.90;;;;;;4994207;28;20442;-73
2022/01/15 09:56:54;;;;;;;1.43;1.33;;;2.20;99.90;;;;;;4992410;28;20451;-73
2022/01/15 09:59:20;;;;;;;0.60;0.60;;;2.20;99.90;;;;;;4993340;28;20786;-73
2022/01/15 10:01:47;;;;;;;0.70;0.70;;;2.30;99.90;;;;;;4993772;28;20175;-73
2022/01/15 10:04:13;;;;;;;0.70;0.70;;;2.30;99.90;;;;;;4993585;28;20486;-73
2022/01/15 10:07:08;;;;;;;0.93;0.83;;;2.30;99.90;;;;;;4994486;28;20444;-73
2022/01/15 10:09:34;;;;;;;0.60;0.60;;;2.30;99.90;;;;;;4990837;28;20448;-73
2022/01/15 10:11:59;;;;;;;1.43;1.33;;;2.40;99.90;;;;;;4971071;28;20432;-73
2022/01/15 10:14:30;;;;;;;1.00;0.97;;;2.40;99.90;;;;;;4989969;28;20951;-73
2022/01/15 10:16:57;;;;;;;1.13;1.13;;;2.40;99.90;;;;;;4996567;28;20200;-73
2022/01/15 10:19:29;;;;;;;0.90;0.70;;;2.50;99.90;;;;;;4996645;28;20487;-73
2022/01/15 10:22:10;;;;;;;0.60;0.50;;;2.70;99.90;;;;;;4994651;28;20416;-73
2022/01/15 10:24:37;;;;;;;1.30;1.20;;;2.80;99.90;;;;;;4995194;28;20424;-73
2022/01/15 10:27:23;;;;;;;0.60;0.50;;;2.70;99.90;;;;;;4992732;28;20510;-73
2022/01/15 10:29:54;;;;;;;1.10;1.10;;;2.70;99.90;;;;;;4993248;28;20430;-73
2022/01/15 10:32:20;;;;;;;0.70;0.70;;;2.70;99.90;;;;;;4992421;28;20416;-73
2022/01/15 10:34:46;;;;;;;2.10;2.00;;;2.70;99.90;;;;;;4993213;28;20435;-73
2022/01/15 10:37:12;;;;;;;0.70;0.70;;;2.80;99.90;;;;;;4993173;28;20474;-72
2022/01/15 10:39:39;;;;;;;0.60;0.57;;;2.80;99.90;;;;;;4993067;28;20200;-72
2022/01/15 10:42:15;;;;;;;0.60;0.50;;;2.70;99.90;;;;;;4992422;28;20428;-72
2022/01/15 10:44:42;;;;;;;0.60;0.50;;;2.80;99.90;;;;;;4992850;28;20446;-72
2022/01/15 10:47:13;;;;;;;30.07;2.13;;;2.80;99.90;;;;;;4991796;28;20960;-73
2022/01/15 10:49:40;;;;;;;0.80;0.80;;;2.90;99.90;;;;;;4989511;28;20530;-72
2022/01/15 10:52:19;;;;;;;1.57;1.47;;;2.80;99.90;;;;;;4992128;28;20906;-71
2022/01/15 10:54:57;;;;;;;0.60;0.53;;;2.80;99.90;;;;;;4992860;28;20447;-73
2022/01/15 10:57:29;;;;;;;0.80;0.80;;;3.00;99.90;;;;;;4992580;28;20443;-73
2022/01/15 11:00:01;;;;;;;0.60;0.50;;;3.00;99.90;;;;;;4992960;28;20463;-73
2022/01/15 11:02:27;;;;;;;3.90;1.87;;;3.10;99.90;;;;;;4991991;28;20440;-73
2022/01/15 11:04:53;;;;;;;0.60;0.53;;;3.00;99.90;;;;;;4988323;28;20424;-73
2022/01/15 11:07:19;;;;;;;0.60;0.50;;;3.00;99.90;;;;;;4992184;28;20432;-73
2022/01/15 11:09:47;;;;;;;1.00;0.80;;;2.90;99.90;;;;;;4992938;28;20212;-73
2022/01/15 11:12:14;;;;;;;0.60;0.60;;;2.80;99.90;;;;;;4993628;28;20440;-73
2022/01/15 11:14:40;;;;;;;0.60;0.50;;;2.80;99.90;;;;;;4994428;28;20494;-73
2022/01/15 11:17:07;;;;;;;1.00;0.97;;;2.90;99.90;;;;;;4976584;28;20980;-73
2022/01/15 11:19:34;;;;;;;2.37;1.00;;;2.80;99.90;;;;;;4993244;28;20448;-73
2022/01/15 11:22:01;;;;;;;0.60;0.50;;;2.80;99.90;;;;;;4993719;28;20916;-73
2022/01/15 11:24:27;;;;;;;0.70;0.70;;;3.00;99.90;;;;;;4993640;28;20423;-73
2022/01/15 11:26:57;;;;;;;0.60;0.60;;;2.90;99.90;;;;;;4993962;28;20517;-73
2022/01/15 11:29:22;;;;;;;2.10;0.73;;;2.80;99.90;;;;;;4994166;28;20183;-73
2022/01/15 11:31:53;;;;;;;0.60;0.50;;;2.90;99.90;;;;;;4993305;28;20419;-73
2022/01/15 11:34:20;;;;;;;1.47;1.37;;;3.00;99.90;;;;;;4992881;28;20427;-73
2022/01/15 11:36:47;;;;;;;0.83;0.83;;;3.00;99.90;;;;;;4963263;28;20507;-72
2022/01/15 11:39:34;;;;;;;0.80;0.80;;;3.00;99.90;;;;;;4992767;28;20494;-72
2022/01/15 11:42:02;;;;;;;0.80;0.77;;;3.20;99.90;;;;;;4992466;28;20921;-73
2022/01/15 11:44:35;;;;;;;1.57;1.57;;;3.20;99.90;;;;;;4988532;28;20420;-73
2022/01/15 11:47:18;;;;;;;0.80;0.80;;;3.30;99.90;;;;;;4985330;28;20461;-73
2022/01/15 11:49:45;;;;;;;0.60;0.60;;;3.30;99.90;;;;;;4993729;28;20863;-73
2022/01/15 11:52:12;;;;;;;0.60;0.60;;;3.40;99.90;;;;;;4993362;28;20420;-74
2022/01/15 11:54:40;;;;;;;0.60;0.50;;;3.20;99.90;;;;;;4992455;28;20428;-73
2022/01/15 11:57:30;;;;;;;0.60;0.50;;;3.30;99.90;;;;;;4978384;28;20827;-74
2022/01/15 12:00:06;;;;;;;8.83;1.93;;;3.40;99.90;;;;;;4994963;28;20475;-74
2022/01/15 12:02:56;;;;;;;0.60;0.50;;;3.40;99.90;;;;;;4977813;28;20947;-72
2022/01/15 12:05:21;;;;;;;1.47;1.37;;;3.60;99.90;;;;;;4988736;28;20442;-73
2022/01/15 12:08:00;;;;;;;0.90;0.90;;;3.50;99.90;;;;;;4997529;28;20458;-72
2022/01/15 12:10:45;;;;;;;0.70;0.70;;;3.40;99.90;;;;;;4992924;28;20267;-72
2022/01/15 12:13:19;;;;;;;1.37;1.27;;;3.60;99.90;;;;;;4993108;28;20430;-72
2022/01/15 12:15:46;;;;;;;1.87;1.73;;;3.60;99.90;;;;;;4994451;28;20532;-73
2022/01/15 12:18:16;;;;;;;0.60;0.50;;;3.40;99.90;;;;;;4995303;28;20533;-72
2022/01/15 12:20:41;;;;;;;0.73;0.70;;;3.40;99.90;;;;;;4976965;28;20462;-73
2022/01/15 12:23:19;;;;;;;0.60;0.50;;;3.60;99.90;;;;;;4997054;28;20917;-73
2022/01/15 12:25:52;;;;;;;0.60;0.50;;;3.50;99.90;;;;;;4997690;28;20199;-73
2022/01/15 12:28:18;;;;;;;0.80;0.80;;;3.60;99.90;;;;;;4997554;28;20510;-73
2022/01/15 12:30:46;;;;;;;0.70;0.70;;;3.60;99.90;;;;;;4981590;28;20514;-74
2022/01/15 12:33:13;;;;;;;0.60;0.50;;;3.80;99.90;;;;;;4996148;28;20439;-73
2022/01/15 12:35:42;;;;;;;0.60;0.53;;;3.60;99.90;;;;;;4996394;28;21032;-73
2022/01/15 12:38:13;;;;;;;0.60;0.50;;;3.60;99.90;;;;;;4995715;28;20999;-73
2022/01/15 12:40:47;;;;;;;0.60;0.60;;;3.50;99.90;;;;;;4995788;28;20928;-73
2022/01/15 12:43:17;;;;;;;0.60;0.60;;;3.50;99.90;;;;;;4995344;28;20434;-73
2022/01/15 12:45:45;;;;;;;4.43;1.03;;;3.50;99.90;;;;;;4996102;28;20447;-73
2022/01/15 12:48:15;;;;;;;0.60;0.60;;;3.30;99.90;;;;;;4978311;28;20443;-73
2022/01/15 12:50:49;;;;;;;0.60;0.50;;;3.40;99.90;;;;;;4996644;28;20831;-73
2022/01/15 12:53:16;;;;;;;0.60;0.50;;;3.50;99.90;;;;;;4995365;28;20569;-73
2022/01/15 12:55:42;;;;;;;1.67;1.40;;;3.40;99.90;;;;;;4995350;28;20841;-73
2022/01/15 12:58:09;;;;;;;1.07;1.07;;;3.60;99.90;;;;;;4994140;28;20439;-73
2022/01/15 13:00:38;;;;;;;0.60;0.50;;;3.70;99.90;;;;;;4994282;28;20424;-73
2022/01/15 13:03:09;;;;;;;0.60;0.50;;;3.60;99.90;;;;;;4994277;28;20501;-73
2022/01/15 13:05:43;;;;;;;1.20;1.10;;;3.70;99.90;;;;;;4992762;28;20443;-73
2022/01/15 13:08:15;;;;;;;0.60;0.50;;;3.60;99.90;;;;;;4978011;28;20431;-73
2022/01/15 13:10:49;;;;;;;0.60;0.50;;;3.60;99.90;;;;;;4990207;28;20433;-73
2022/01/15 13:13:32;;;;;;;0.60;0.60;;;3.50;99.90;;;;;;4991560;28;20456;-73
2022/01/15 13:16:08;;;;;;;0.70;0.70;;;3.50;99.90;;;;;;4983913;28;20447;-73
2022/01/15 13:18:38;;;;;;;1.10;0.97;;;3.50;99.90;;;;;;4994331;28;20459;-73
2022/01/15 13:21:28;;;;;;;0.60;0.50;;;3.50;99.90;;;;;;4995625;28;20467;-73